Time;durP1;ratioP1;P1;durP2;ratioP2;P2;SDS_P1;SDS_P2;PMS_P1;PMS_P2;Temp;Humidity;BMP_temperature;BMP_pressure;BME280_temperature;BME280_humidity;BME280_pressure;Samples;Min_cycle;Max_cycle;Signal;HPM_P1;HPM_P2
2022/11/06 00:01:45;;;;;;;11.33;5.50;;;8.10;99.90;;;;;;5096146;28;20489;-67
2022/11/06 00:04:12;;;;;;;6.60;5.10;;;8.10;99.90;;;;;;5095583;28;20493;-67
2022/11/06 00:06:47;;;;;;;9.40;5.63;;;8.00;99.90;;;;;;5095559;28;20909;-66
2022/11/06 00:09:16;;;;;;;7.17;5.00;;;7.90;99.90;;;;;;5095820;28;20487;-66
2022/11/06 00:11:43;;;;;;;8.10;5.40;;;7.90;99.90;;;;;;5095913;28;20540;-67
2022/11/06 00:14:12;;;;;;;8.63;4.70;;;7.90;99.90;;;;;;5095504;28;20522;-66
2022/11/06 00:16:40;;;;;;;9.33;5.70;;;7.80;99.90;;;;;;5095713;28;20481;-67
2022/11/06 00:19:07;;;;;;;10.33;6.23;;;7.80;99.90;;;;;;5095792;28;20569;-67
2022/11/06 00:21:35;;;;;;;8.50;5.97;;;7.80;99.90;;;;;;5095344;28;20515;-66
2022/11/06 00:24:04;;;;;;;11.13;6.30;;;7.80;99.90;;;;;;5095657;28;20517;-67
2022/11/06 00:26:32;;;;;;;13.50;6.40;;;7.70;99.90;;;;;;5094903;28;20917;-67
2022/11/06 00:29:00;;;;;;;8.70;5.90;;;7.70;99.90;;;;;;5095182;28;20545;-66
2022/11/06 00:31:30;;;;;;;8.83;6.20;;;7.60;99.90;;;;;;5095188;28;20516;-67
2022/11/06 00:33:59;;;;;;;14.20;6.93;;;7.60;99.90;;;;;;5095627;28;20507;-66
2022/11/06 00:36:29;;;;;;;11.40;6.33;;;7.60;99.90;;;;;;5095405;28;20480;-66
2022/11/06 00:38:56;;;;;;;13.40;6.97;;;7.60;99.90;;;;;;5095703;28;20457;-68
2022/11/06 00:41:24;;;;;;;10.07;6.60;;;7.50;99.90;;;;;;5095750;28;20801;-67
2022/11/06 00:43:53;;;;;;;9.93;6.27;;;7.50;99.90;;;;;;5095622;28;20453;-67
2022/11/06 00:46:21;;;;;;;12.00;7.07;;;7.50;99.90;;;;;;5095237;28;20514;-66
2022/11/06 00:48:50;;;;;;;10.10;6.30;;;7.40;99.90;;;;;;5095476;28;20511;-67
2022/11/06 00:51:19;;;;;;;8.13;6.47;;;7.40;99.90;;;;;;5095576;28;20568;-67
2022/11/06 00:53:47;;;;;;;11.30;7.13;;;7.40;99.90;;;;;;5095973;28;20457;-67
2022/11/06 00:56:16;;;;;;;10.30;7.07;;;7.40;99.90;;;;;;5095678;28;20544;-67
2022/11/06 00:58:43;;;;;;;12.20;6.17;;;7.40;99.90;;;;;;5094927;28;20486;-66
2022/11/06 01:01:12;;;;;;;10.70;6.60;;;7.40;99.90;;;;;;5094896;28;20453;-65
2022/11/06 01:03:40;;;;;;;18.43;6.10;;;7.40;99.90;;;;;;5094691;28;20540;-66
2022/11/06 01:06:10;;;;;;;11.23;6.57;;;7.40;99.90;;;;;;5095214;28;20481;-66
2022/11/06 01:08:38;;;;;;;9.20;5.83;;;7.40;99.90;;;;;;5095067;28;20517;-67
2022/11/06 01:11:10;;;;;;;6.80;5.87;;;7.40;99.90;;;;;;5094998;28;20540;-65
2022/11/06 01:13:37;;;;;;;10.50;6.33;;;7.40;99.90;;;;;;5094799;28;20518;-66
2022/11/06 01:16:06;;;;;;;10.93;6.20;;;7.40;99.90;;;;;;5094857;28;20453;-66
2022/11/06 01:18:34;;;;;;;12.40;6.83;;;7.40;99.90;;;;;;5094382;28;20473;-66
2022/11/06 01:21:05;;;;;;;10.27;6.43;;;7.30;99.90;;;;;;5094908;28;20492;-66
2022/11/06 01:23:33;;;;;;;11.10;6.77;;;7.30;99.90;;;;;;5095017;28;20846;-66
2022/11/06 01:26:02;;;;;;;8.63;6.67;;;7.30;99.90;;;;;;5094819;28;20514;-67
2022/11/06 01:28:29;;;;;;;7.67;6.60;;;7.30;99.90;;;;;;5095033;28;20461;-66
2022/11/06 01:30:56;;;;;;;10.93;6.73;;;7.20;99.90;;;;;;5094642;28;20998;-67
2022/11/06 01:33:23;;;;;;;14.03;7.80;;;7.20;99.90;;;;;;5094806;28;20556;-65
2022/11/06 01:35:51;;;;;;;13.17;7.00;;;7.20;99.90;;;;;;5094751;28;20785;-65
2022/11/06 01:38:18;;;;;;;9.47;6.70;;;7.20;99.90;;;;;;5097174;28;20457;-66
2022/11/06 01:40:48;;;;;;;8.70;6.67;;;7.20;99.90;;;;;;5099241;28;20481;-64
2022/11/06 01:43:17;;;;;;;11.73;7.43;;;7.20;99.90;;;;;;5098897;28;20485;-66
2022/11/06 01:45:45;;;;;;;10.47;6.47;;;7.20;99.90;;;;;;5098868;28;20453;-66
2022/11/06 01:48:13;;;;;;;9.70;6.90;;;7.20;99.90;;;;;;5098871;28;20561;-66
2022/11/06 01:50:43;;;;;;;9.33;7.20;;;7.20;99.90;;;;;;5098657;28;20987;-67
2022/11/06 01:53:11;;;;;;;9.90;6.97;;;7.30;99.90;;;;;;5098638;28;20464;-65
2022/11/06 01:55:42;;;;;;;11.40;7.23;;;7.30;99.90;;;;;;5098599;28;20519;-67
2022/11/06 01:58:14;;;;;;;11.67;6.87;;;7.30;99.90;;;;;;5098553;28;20437;-67
2022/11/06 02:00:42;;;;;;;8.17;6.43;;;7.30;99.90;;;;;;5098488;28;20426;-66
2022/11/06 02:03:11;;;;;;;11.80;6.60;;;7.30;99.90;;;;;;5098894;28;20457;-65
2022/11/06 02:05:38;;;;;;;12.80;7.63;;;7.30;99.90;;;;;;5099167;28;20457;-67
2022/11/06 02:08:06;;;;;;;15.10;6.70;;;7.30;99.90;;;;;;5100327;28;20489;-66
2022/11/06 02:10:34;;;;;;;11.03;6.60;;;7.30;99.90;;;;;;5101192;28;20477;-67
2022/11/06 02:13:19;;;;;;;12.07;6.30;;;7.40;99.90;;;;;;5098963;28;20511;-67
2022/11/06 02:15:51;;;;;;;10.27;7.23;;;7.40;99.90;;;;;;5098204;28;20475;-66
2022/11/06 02:18:40;;;;;;;10.47;6.90;;;7.40;99.90;;;;;;5098086;28;20484;-67
2022/11/06 02:21:42;;;;;;;10.47;6.80;;;7.40;99.90;;;;;;5085751;28;20481;-66
2022/11/06 02:24:44;;;;;;;12.53;6.83;;;7.40;99.90;;;;;;5098103;28;20881;-67
2022/11/06 02:27:15;;;;;;;9.70;7.67;;;7.30;99.90;;;;;;5098157;28;20479;-65
2022/11/06 02:29:49;;;;;;;8.20;6.87;;;7.20;99.90;;;;;;5097900;28;20537;-66
2022/11/06 02:32:21;;;;;;;14.40;7.63;;;7.20;99.90;;;;;;5097705;28;20461;-67
2022/11/06 02:34:51;;;;;;;11.87;7.77;;;7.20;99.90;;;;;;5098303;28;20449;-66
2022/11/06 02:37:21;;;;;;;12.90;7.73;;;7.10;99.90;;;;;;5097825;28;20457;-67
2022/11/06 02:39:51;;;;;;;12.13;8.03;;;7.10;99.90;;;;;;5098277;28;20457;-66
2022/11/06 02:42:21;;;;;;;9.23;7.30;;;7.10;99.90;;;;;;5097392;28;20496;-66
2022/11/06 02:44:49;;;;;;;11.20;7.90;;;7.10;99.90;;;;;;5097730;28;20496;-66
2022/11/06 02:47:18;;;;;;;9.83;7.87;;;7.00;99.90;;;;;;5097955;28;20457;-66
2022/11/06 02:49:50;;;;;;;13.53;7.70;;;7.00;99.90;;;;;;5097128;28;20488;-65
2022/11/06 02:52:20;;;;;;;12.83;8.20;;;7.00;99.90;;;;;;5097626;28;20473;-66
2022/11/06 02:54:51;;;;;;;13.80;8.10;;;7.00;99.90;;;;;;5097401;28;20965;-66
2022/11/06 02:57:20;;;;;;;10.27;7.30;;;7.00;99.90;;;;;;5097157;28;20499;-66
2022/11/06 02:59:53;;;;;;;10.40;7.73;;;7.10;99.90;;;;;;5097336;28;20514;-67
2022/11/06 03:02:24;;;;;;;16.40;7.83;;;7.10;99.90;;;;;;5096903;28;20488;-67
2022/11/06 03:04:55;;;;;;;13.83;8.10;;;7.10;99.90;;;;;;5096782;28;20438;-67
2022/11/06 03:07:28;;;;;;;16.20;8.00;;;7.10;99.90;;;;;;5097196;28;20525;-67
2022/11/06 03:09:56;;;;;;;13.83;7.63;;;7.10;99.90;;;;;;5096799;28;20489;-67
2022/11/06 03:12:29;;;;;;;12.57;8.10;;;7.10;99.90;;;;;;5097222;28;20927;-66
2022/11/06 03:15:00;;;;;;;11.93;7.13;;;7.10;99.90;;;;;;5097050;28;20502;-67
2022/11/06 03:17:37;;;;;;;14.57;8.07;;;7.20;99.90;;;;;;5096914;28;20542;-67
2022/11/06 03:20:14;;;;;;;11.30;8.00;;;7.10;99.90;;;;;;5097052;28;20521;-66
2022/11/06 03:22:47;;;;;;;10.90;7.30;;;7.10;99.90;;;;;;5096970;28;20473;-68
2022/11/06 03:25:18;;;;;;;14.30;7.27;;;7.10;99.90;;;;;;5097287;28;20528;-67
2022/11/06 03:27:52;;;;;;;12.70;7.97;;;7.00;99.90;;;;;;5096976;28;20445;-67
2022/11/06 03:30:20;;;;;;;11.20;7.90;;;7.00;99.90;;;;;;5097107;28;20478;-67
2022/11/06 03:32:50;;;;;;;9.90;8.30;;;6.90;99.90;;;;;;5097129;28;20453;-67
2022/11/06 03:35:23;;;;;;;10.00;7.20;;;6.90;99.90;;;;;;5096981;28;20442;-67
2022/11/06 03:37:55;;;;;;;13.27;6.80;;;6.80;99.90;;;;;;5096549;28;20939;-65
2022/11/06 03:40:26;;;;;;;13.30;8.50;;;6.80;99.90;;;;;;5096815;28;20442;-66
2022/11/06 03:42:57;;;;;;;13.90;8.60;;;6.80;99.90;;;;;;5096914;28;20848;-67
2022/11/06 03:45:26;;;;;;;11.77;8.30;;;6.80;99.90;;;;;;5096514;28;20528;-67
2022/11/06 03:47:58;;;;;;;11.13;7.67;;;6.80;99.90;;;;;;5096819;28;20855;-66
2022/11/06 03:50:30;;;;;;;13.10;8.47;;;6.70;99.90;;;;;;5097115;28;20449;-67
2022/11/06 03:53:02;;;;;;;11.57;8.83;;;6.70;99.90;;;;;;5096557;28;20437;-67
2022/11/06 03:55:34;;;;;;;11.10;7.77;;;6.70;99.90;;;;;;5097037;28;20477;-67
2022/11/06 03:58:06;;;;;;;10.23;7.77;;;6.60;99.90;;;;;;5096212;28;20533;-67
2022/11/06 04:00:37;;;;;;;13.73;8.17;;;6.70;99.90;;;;;;5095560;28;20467;-67
2022/11/06 04:03:10;;;;;;;16.73;8.23;;;6.60;99.90;;;;;;5096372;28;20533;-66
2022/11/06 04:05:42;;;;;;;16.37;8.50;;;6.60;99.90;;;;;;5096731;28;20823;-65
2022/11/06 04:14:00;;;;;;;11.53;7.70;;;6.70;99.90;;;;;;5096379;28;20547;-66
2022/11/06 04:16:31;;;;;;;12.93;8.07;;;6.70;99.90;;;;;;5096778;28;20464;-67
2022/11/06 04:18:59;;;;;;;12.17;8.63;;;6.70;99.90;;;;;;5096188;28;20559;-67
2022/11/06 04:21:39;;;;;;;11.47;7.60;;;6.70;99.90;;;;;;5096433;28;20502;-66
2022/11/06 04:27:22;;;;;;;11.23;7.60;;;6.70;99.90;;;;;;5096269;28;20548;-66
2022/11/06 04:30:05;;;;;;;9.90;7.60;;;6.70;99.90;;;;;;5096400;28;20437;-66
2022/11/06 04:32:41;;;;;;;10.40;7.90;;;6.70;99.90;;;;;;5096110;28;20548;-66
2022/11/06 04:35:20;;;;;;;13.23;8.83;;;6.70;99.90;;;;;;5095780;28;20818;-66
2022/11/06 04:37:54;;;;;;;11.63;8.43;;;6.70;99.90;;;;;;5095664;28;20457;-67
2022/11/06 04:40:27;;;;;;;10.40;7.30;;;6.60;99.90;;;;;;5096498;28;20469;-66
2022/11/06 04:42:59;;;;;;;13.00;7.93;;;6.60;99.90;;;;;;5095485;28;20491;-65
2022/11/06 04:45:31;;;;;;;10.40;8.10;;;6.60;99.90;;;;;;5095625;28;20470;-67
2022/11/06 04:48:00;;;;;;;16.00;8.80;;;6.60;99.90;;;;;;5095394;28;20913;-66
2022/11/06 04:50:28;;;;;;;14.27;8.33;;;6.60;99.90;;;;;;5095556;28;20449;-65
2022/11/06 04:52:57;;;;;;;10.90;7.83;;;6.50;99.90;;;;;;5095552;28;20477;-65
2022/11/06 04:55:25;;;;;;;14.87;8.57;;;6.50;99.90;;;;;;5095553;28;20521;-65
2022/11/06 04:57:52;;;;;;;12.03;8.67;;;6.50;99.90;;;;;;5095934;28;20457;-65
2022/11/06 05:00:24;;;;;;;10.80;8.07;;;6.40;99.90;;;;;;5095990;28;20489;-65
2022/11/06 05:02:53;;;;;;;12.90;8.53;;;6.40;99.90;;;;;;5096420;28;20486;-66
2022/11/06 05:05:19;;;;;;;12.77;8.50;;;6.30;99.90;;;;;;5095432;28;20538;-67
2022/11/06 05:07:46;;;;;;;15.53;9.57;;;6.30;99.90;;;;;;5094889;28;20537;-66
2022/11/06 05:10:13;;;;;;;10.80;8.33;;;6.30;99.90;;;;;;5094974;28;20544;-66
2022/11/06 05:12:40;;;;;;;13.07;8.40;;;6.30;99.90;;;;;;5095025;28;20585;-66
2022/11/06 05:15:08;;;;;;;12.40;8.77;;;6.20;99.90;;;;;;5095000;28;20824;-67
2022/11/06 05:17:35;;;;;;;13.07;8.77;;;6.20;99.90;;;;;;5095177;28;20545;-67
2022/11/06 05:20:04;;;;;;;11.63;8.30;;;6.20;99.90;;;;;;5095711;28;20556;-66
2022/11/06 05:25:16;;;;;;;12.87;8.40;;;6.20;99.90;;;;;;5096914;28;20425;-66
2022/11/06 05:27:42;;;;;;;14.93;8.27;;;6.20;99.90;;;;;;5094842;28;20574;-65
2022/11/06 05:30:10;;;;;;;12.77;8.53;;;6.10;99.90;;;;;;5094454;28;20540;-67
2022/11/06 05:32:37;;;;;;;10.30;8.30;;;6.10;99.90;;;;;;5094628;28;20568;-66
2022/11/06 05:35:07;;;;;;;12.07;8.43;;;6.10;99.90;;;;;;5094720;28;20465;-66
2022/11/06 05:37:34;;;;;;;15.00;9.30;;;6.10;99.90;;;;;;5094701;28;20794;-66
2022/11/06 05:40:01;;;;;;;13.13;9.20;;;6.10;99.90;;;;;;5094658;28;20499;-66
2022/11/06 05:42:28;;;;;;;11.53;8.90;;;6.10;99.90;;;;;;5094264;28;20922;-66
2022/11/06 05:44:54;;;;;;;12.27;7.70;;;6.10;99.90;;;;;;5094606;28;20518;-65
2022/11/06 05:47:22;;;;;;;10.47;8.47;;;6.10;99.90;;;;;;5094356;28;20493;-66
2022/11/06 05:49:49;;;;;;;9.43;8.20;;;6.10;99.90;;;;;;5094608;28;20527;-66
2022/11/06 05:52:17;;;;;;;15.20;8.30;;;6.10;99.90;;;;;;5094725;28;20804;-67
2022/11/06 05:54:44;;;;;;;12.77;8.30;;;6.10;99.90;;;;;;5094396;28;20544;-66
2022/11/06 05:57:11;;;;;;;14.47;8.37;;;6.10;99.90;;;;;;5094657;28;20858;-67
2022/11/06 05:59:38;;;;;;;14.03;8.10;;;6.10;99.90;;;;;;5094921;28;20982;-66
2022/11/06 06:02:05;;;;;;;11.37;8.53;;;6.00;99.90;;;;;;5094396;28;20502;-66
2022/11/06 06:04:31;;;;;;;10.57;7.97;;;6.00;99.90;;;;;;5094269;28;20458;-68
2022/11/06 06:06:59;;;;;;;12.40;8.33;;;6.00;99.90;;;;;;5094990;28;20454;-67
2022/11/06 06:09:27;;;;;;;16.73;9.80;;;6.00;99.90;;;;;;5094517;28;20458;-67
2022/11/06 06:11:54;;;;;;;9.90;8.00;;;6.00;99.90;;;;;;5094614;28;20659;-66
2022/11/06 06:14:21;;;;;;;12.40;9.60;;;6.10;99.90;;;;;;5094732;28;20449;-67
2022/11/06 06:16:48;;;;;;;10.20;7.43;;;6.10;99.90;;;;;;5095087;28;20867;-67
2022/11/06 06:19:15;;;;;;;11.93;8.73;;;6.10;99.90;;;;;;5096433;28;20521;-67
2022/11/06 06:21:42;;;;;;;13.17;8.43;;;6.10;99.90;;;;;;5096303;28;20546;-66
2022/11/06 06:24:09;;;;;;;11.33;8.70;;;6.00;99.90;;;;;;5098110;28;20449;-66
2022/11/06 06:26:37;;;;;;;12.00;8.53;;;6.00;99.90;;;;;;5099808;28;20536;-67
2022/11/06 06:29:04;;;;;;;13.00;8.47;;;6.00;99.90;;;;;;5099375;28;20453;-66
2022/11/06 06:31:31;;;;;;;13.90;9.00;;;6.00;99.90;;;;;;5099153;28;20481;-65
2022/11/06 06:33:58;;;;;;;11.93;8.40;;;6.00;99.90;;;;;;5099105;28;20453;-65
2022/11/06 06:36:25;;;;;;;12.27;9.30;;;6.00;99.90;;;;;;5098211;28;20456;-66
2022/11/06 06:38:52;;;;;;;13.40;8.60;;;6.00;99.90;;;;;;5098069;28;20522;-66
2022/11/06 06:41:19;;;;;;;11.30;8.47;;;5.90;99.90;;;;;;5097794;28;20758;-66
2022/11/06 06:43:49;;;;;;;13.50;9.13;;;5.90;99.90;;;;;;5098376;28;20449;-66
2022/11/06 06:46:17;;;;;;;9.73;8.47;;;5.90;99.90;;;;;;5097996;28;20453;-66
2022/11/06 06:48:44;;;;;;;10.13;8.80;;;5.90;99.90;;;;;;5097427;28;20918;-66
2022/11/06 06:51:11;;;;;;;12.70;9.63;;;6.00;99.90;;;;;;5097637;28;20951;-66
2022/11/06 06:53:38;;;;;;;19.43;9.50;;;6.00;99.90;;;;;;5097654;28;20860;-66
2022/11/06 06:56:05;;;;;;;11.87;9.30;;;6.00;99.90;;;;;;5097330;28;20906;-66
2022/11/06 06:58:32;;;;;;;12.73;8.33;;;6.00;99.90;;;;;;5097440;28;20487;-66
2022/11/06 07:01:02;;;;;;;17.60;9.07;;;6.00;99.90;;;;;;5097499;28;20506;-65
2022/11/06 07:03:29;;;;;;;10.87;9.10;;;6.10;99.90;;;;;;5097460;28;20544;-67
2022/11/06 07:05:58;;;;;;;16.60;9.57;;;6.10;99.90;;;;;;5097286;28;20463;-66
2022/11/06 07:08:25;;;;;;;10.33;8.43;;;6.20;99.90;;;;;;5097324;28;20468;-66
2022/11/06 07:10:52;;;;;;;21.13;9.40;;;6.20;99.90;;;;;;5097109;28;20458;-66
2022/11/06 07:13:19;;;;;;;11.27;8.90;;;6.30;99.90;;;;;;5097041;28;20809;-67
2022/11/06 07:15:46;;;;;;;13.13;8.10;;;6.30;99.90;;;;;;5097361;28;20453;-66
2022/11/06 07:18:14;;;;;;;12.83;8.93;;;6.40;99.90;;;;;;5096907;28;20488;-66
2022/11/06 07:20:41;;;;;;;12.83;8.90;;;6.40;99.90;;;;;;5097208;28;20515;-66
2022/11/06 07:23:08;;;;;;;10.53;8.63;;;6.50;99.90;;;;;;5096834;28;20492;-67
2022/11/06 07:25:36;;;;;;;14.57;9.40;;;6.50;99.90;;;;;;5096707;28;20544;-67
2022/11/06 07:28:04;;;;;;;14.10;9.33;;;6.60;99.90;;;;;;5096649;28;20457;-66
2022/11/06 07:30:31;;;;;;;11.33;7.90;;;6.60;99.90;;;;;;5096537;28;20516;-66
2022/11/06 07:33:00;;;;;;;10.37;8.43;;;6.60;99.90;;;;;;5096344;28;20541;-66
2022/11/06 07:35:29;;;;;;;12.73;9.00;;;6.70;99.90;;;;;;5096016;28;20453;-66
2022/11/06 07:37:56;;;;;;;12.60;8.63;;;6.70;99.90;;;;;;5096657;28;20530;-66
2022/11/06 07:40:23;;;;;;;15.63;9.23;;;6.70;99.90;;;;;;5096928;28;20917;-66
2022/11/06 07:42:50;;;;;;;14.23;9.40;;;6.80;99.90;;;;;;5108852;28;20456;-69
2022/11/06 07:45:17;;;;;;;12.23;8.70;;;6.90;99.90;;;;;;5106233;28;20782;-69
2022/11/06 07:47:44;;;;;;;15.17;11.47;;;6.90;99.90;;;;;;5107646;28;20464;-69
2022/11/06 07:50:11;;;;;;;11.43;8.43;;;6.90;99.90;;;;;;5105886;28;20457;-69
2022/11/06 07:52:40;;;;;;;16.00;10.37;;;7.00;99.90;;;;;;5106676;28;20546;-70
2022/11/06 07:55:07;;;;;;;9.73;8.43;;;7.00;99.90;;;;;;5106852;28;20453;-69
2022/11/06 07:57:37;;;;;;;15.90;9.23;;;7.00;99.90;;;;;;5104467;28;20480;-70
2022/11/06 08:00:05;;;;;;;14.17;9.23;;;7.00;99.90;;;;;;5105308;28;20453;-70
2022/11/06 08:02:32;;;;;;;13.00;9.60;;;7.00;99.90;;;;;;5107401;28;20453;-68
2022/11/06 08:04:59;;;;;;;12.83;9.40;;;7.00;99.90;;;;;;5106907;28;20463;-68
2022/11/06 08:07:26;;;;;;;12.60;9.07;;;7.10;99.90;;;;;;5106410;28;20468;-69
2022/11/06 08:09:55;;;;;;;10.93;8.27;;;7.10;99.90;;;;;;5107403;28;20483;-70
2022/11/06 08:12:22;;;;;;;10.83;8.30;;;7.10;99.90;;;;;;5105463;28;20474;-69
2022/11/06 08:14:48;;;;;;;12.50;8.83;;;7.20;99.90;;;;;;5108229;28;20457;-69
2022/11/06 08:17:15;;;;;;;11.93;8.77;;;7.20;99.90;;;;;;5111867;28;20478;-69
2022/11/06 08:19:42;;;;;;;9.90;8.03;;;7.20;99.90;;;;;;5108701;28;20434;-69
2022/11/06 08:22:09;;;;;;;14.17;9.03;;;7.30;99.90;;;;;;5104939;28;20488;-70
2022/11/06 08:24:36;;;;;;;12.13;9.00;;;7.30;99.90;;;;;;5109471;28;20731;-69
2022/11/06 08:27:04;;;;;;;13.00;9.43;;;7.40;99.90;;;;;;5106614;28;20454;-69
2022/11/06 08:29:31;;;;;;;12.47;8.20;;;7.40;99.90;;;;;;5105146;28;20458;-69
2022/11/06 08:31:58;;;;;;;12.17;8.90;;;7.40;99.90;;;;;;5103882;28;20456;-69
2022/11/06 08:34:25;;;;;;;10.40;8.40;;;7.50;99.90;;;;;;5106183;28;20808;-70
2022/11/06 08:36:52;;;;;;;13.30;9.60;;;7.50;99.90;;;;;;5104303;28;20489;-69
2022/11/06 08:39:19;;;;;;;11.57;8.50;;;7.60;99.90;;;;;;5103616;28;20463;-69
2022/11/06 08:41:46;;;;;;;13.37;8.27;;;7.60;99.90;;;;;;5107150;28;20446;-69
2022/11/06 08:44:15;;;;;;;11.97;9.13;;;7.70;99.90;;;;;;5106209;28;20445;-70
2022/11/06 08:46:42;;;;;;;16.97;9.70;;;7.70;99.90;;;;;;5103424;28;20514;-70
2022/11/06 08:49:09;;;;;;;12.90;9.77;;;7.80;99.90;;;;;;5104338;28;20453;-69
2022/11/06 08:51:36;;;;;;;13.93;9.03;;;7.80;99.90;;;;;;5107055;28;20507;-69
2022/11/06 08:54:03;;;;;;;12.93;8.77;;;7.90;99.90;;;;;;5107951;28;20461;-69
2022/11/06 08:56:30;;;;;;;11.37;8.03;;;7.90;99.90;;;;;;5106539;28;20457;-69
2022/11/06 08:58:57;;;;;;;11.43;8.83;;;8.00;99.90;;;;;;5103834;28;20454;-70
2022/11/06 09:01:26;;;;;;;12.20;8.50;;;8.10;99.90;;;;;;5104893;28;20453;-69
2022/11/06 09:03:53;;;;;;;11.33;7.83;;;8.10;99.90;;;;;;5105172;28;20456;-69
2022/11/06 09:06:20;;;;;;;12.50;8.23;;;8.20;99.90;;;;;;5108957;28;20527;-69
2022/11/06 09:08:47;;;;;;;15.03;8.73;;;8.20;99.90;;;;;;5108028;28;20449;-68
2022/11/06 09:11:14;;;;;;;10.63;8.43;;;8.30;99.90;;;;;;5109573;28;20827;-69
2022/11/06 09:13:41;;;;;;;10.23;8.07;;;8.30;99.90;;;;;;5108635;28;20484;-69
2022/11/06 09:16:08;;;;;;;9.30;8.17;;;8.40;99.90;;;;;;5106401;28;20488;-69
2022/11/06 09:18:36;;;;;;;10.93;7.97;;;8.50;99.90;;;;;;5106635;28;20514;-70
2022/11/06 09:21:03;;;;;;;10.27;8.30;;;8.60;99.90;;;;;;5107728;28;20454;-70
2022/11/06 09:23:30;;;;;;;12.47;7.37;;;8.60;99.90;;;;;;5108478;28;20491;-68
2022/11/06 09:25:58;;;;;;;10.90;8.20;;;8.70;99.90;;;;;;5106589;28;20445;-68
2022/11/06 09:28:25;;;;;;;11.60;9.07;;;8.70;99.90;;;;;;5105736;28;20624;-69
2022/11/06 09:30:54;;;;;;;9.57;6.87;;;8.70;99.90;;;;;;5108683;28;20483;-69
2022/11/06 09:33:21;;;;;;;11.00;7.57;;;8.70;99.90;;;;;;5108321;28;20477;-69
2022/11/06 09:35:49;;;;;;;13.43;8.37;;;8.80;99.90;;;;;;5108841;28;20551;-68
2022/11/06 09:38:17;;;;;;;11.30;7.77;;;8.90;99.90;;;;;;5106721;28;20461;-69
2022/11/06 09:40:51;;;;;;;12.77;7.67;;;8.90;99.90;;;;;;5105436;28;20520;-70
2022/11/06 09:43:29;;;;;;;11.67;7.43;;;9.00;99.90;;;;;;5103736;28;20434;-70
2022/11/06 09:46:02;;;;;;;11.13;7.00;;;9.10;99.90;;;;;;5110453;28;20441;-69
2022/11/06 09:48:34;;;;;;;8.77;6.47;;;9.20;99.90;;;;;;5111580;28;20437;-69
2022/11/06 09:51:11;;;;;;;9.10;7.10;;;9.20;99.90;;;;;;5106395;28;20518;-71
2022/11/06 09:53:44;;;;;;;8.93;7.20;;;9.30;99.90;;;;;;5110294;28;20465;-69
2022/11/06 09:56:13;;;;;;;7.50;6.33;;;9.30;99.90;;;;;;5110568;28;20510;-69
2022/11/06 09:58:43;;;;;;;9.00;6.73;;;9.30;99.90;;;;;;5112387;28;20449;-69
2022/11/06 10:01:16;;;;;;;8.00;6.50;;;9.30;99.90;;;;;;5110763;28;20442;-69
2022/11/06 10:03:49;;;;;;;8.30;6.63;;;9.40;99.90;;;;;;5115377;28;20494;-70
2022/11/06 10:06:18;;;;;;;8.57;6.50;;;9.40;99.90;;;;;;5113639;28;20459;-69
2022/11/06 10:08:45;;;;;;;9.23;6.90;;;9.50;99.90;;;;;;5112768;28;20453;-68
2022/11/06 10:11:35;;;;;;;8.50;5.80;;;9.50;99.90;;;;;;5114695;28;20433;-69
2022/11/06 10:14:15;;;;;;;9.53;7.50;;;9.50;99.90;;;;;;5107756;28;20799;-69
2022/11/06 10:16:49;;;;;;;8.07;6.73;;;9.60;99.90;;;;;;5112380;28;20448;-69
2022/11/06 10:19:24;;;;;;;10.83;6.50;;;9.70;99.90;;;;;;5110248;28;20516;-70
2022/11/06 10:22:03;;;;;;;10.70;6.27;;;9.70;99.90;;;;;;5109457;28;20686;-69
2022/11/06 10:24:37;;;;;;;8.47;6.50;;;9.70;99.90;;;;;;5107930;28;20496;-70
2022/11/06 10:27:13;;;;;;;9.10;6.20;;;9.80;99.90;;;;;;5106536;28;20433;-69
2022/11/06 10:30:01;;;;;;;8.93;6.33;;;9.90;99.90;;;;;;5105445;28;20890;-70
2022/11/06 10:32:55;;;;;;;8.80;6.73;;;9.90;99.90;;;;;;5106427;28;20438;-69
2022/11/06 10:35:25;;;;;;;7.43;6.33;;;10.00;99.90;;;;;;5109880;28;20449;-69
2022/11/06 10:37:59;;;;;;;8.70;6.80;;;10.00;99.90;;;;;;5112925;28;20442;-69
2022/11/06 10:40:28;;;;;;;6.30;5.40;;;10.00;99.90;;;;;;5113727;28;20511;-69
2022/11/06 10:43:03;;;;;;;6.70;5.80;;;10.00;99.90;;;;;;5115126;28;20460;-69
2022/11/06 10:45:30;;;;;;;8.93;6.90;;;10.10;99.90;;;;;;5111091;28;20580;-69
2022/11/06 10:48:05;;;;;;;12.37;5.73;;;10.20;99.90;;;;;;5110341;28;20457;-69
2022/11/06 10:50:42;;;;;;;7.13;5.57;;;10.20;99.90;;;;;;5108884;28;20557;-69
2022/11/06 10:53:19;;;;;;;6.90;5.70;;;10.30;99.90;;;;;;5109143;28;20971;-69
2022/11/06 10:56:03;;;;;;;7.83;5.47;;;10.30;99.90;;;;;;5113036;28;20463;-69
2022/11/06 10:58:33;;;;;;;7.43;5.70;;;10.30;99.90;;;;;;5111040;28;20510;-70
2022/11/06 11:01:05;;;;;;;9.13;5.43;;;10.40;99.90;;;;;;5111672;28;20460;-69
2022/11/06 11:03:35;;;;;;;7.63;5.10;;;10.30;99.90;;;;;;5112535;28;20441;-69
2022/11/06 11:06:03;;;;;;;8.00;5.23;;;10.40;99.90;;;;;;5113206;28;20437;-69
2022/11/06 11:08:43;;;;;;;6.43;5.30;;;10.40;99.90;;;;;;5115186;28;20548;-68
2022/11/06 11:11:22;;;;;;;6.80;5.60;;;10.40;99.90;;;;;;5116640;28;20453;-69
2022/11/06 11:13:51;;;;;;;8.63;5.93;;;10.50;99.90;;;;;;5116891;28;20465;-69
2022/11/06 11:16:20;;;;;;;8.20;6.07;;;10.50;99.90;;;;;;5116556;28;20481;-68
2022/11/06 11:18:48;;;;;;;8.70;5.43;;;10.50;99.90;;;;;;5116036;28;20870;-69
2022/11/06 11:21:23;;;;;;;7.50;5.00;;;10.60;99.90;;;;;;5116714;28;20462;-69
2022/11/06 11:26:47;;;;;;;7.43;5.20;;;10.60;99.90;;;;;;5132372;27;20533;-69
2022/11/06 11:29:22;;;;;;;8.93;5.70;;;10.60;99.90;;;;;;5131736;28;20448;-69
2022/11/06 11:31:52;;;;;;;6.67;5.70;;;10.80;99.90;;;;;;5131319;28;20466;-69
2022/11/06 11:34:22;;;;;;;7.67;5.63;;;10.90;99.90;;;;;;5129641;28;20440;-67
2022/11/06 11:36:53;;;;;;;10.93;5.40;;;11.10;99.90;;;;;;5127878;28;20517;-68
2022/11/06 11:39:22;;;;;;;6.60;5.00;;;11.10;99.90;;;;;;5129027;28;20437;-70
2022/11/06 11:41:51;;;;;;;6.87;4.77;;;11.20;99.90;;;;;;5130388;28;20452;-69
2022/11/06 11:44:19;;;;;;;7.60;4.87;;;11.20;99.90;;;;;;5130267;28;20510;-69
2022/11/06 11:46:47;;;;;;;7.60;4.80;;;11.40;99.90;;;;;;5129207;28;20474;-68
2022/11/06 11:49:32;;;;;;;5.30;4.90;;;11.60;99.90;;;;;;5127571;28;20459;-70
2022/11/06 11:52:01;;;;;;;8.73;5.30;;;12.30;99.90;;;;;;5127412;28;20532;-69
2022/11/06 11:54:31;;;;;;;5.80;4.73;;;13.00;99.90;;;;;;5128297;28;20449;-68
2022/11/06 11:57:02;;;;;;;5.20;4.37;;;13.80;99.90;;;;;;5127105;28;20482;-70
2022/11/06 11:59:31;;;;;;;7.30;5.40;;;14.80;99.90;;;;;;5125840;28;20441;-69
2022/11/06 12:02:02;;;;;;;6.10;4.97;;;15.60;99.90;;;;;;5122161;28;20453;-69
2022/11/06 12:04:35;;;;;;;5.10;4.17;;;16.30;99.90;;;;;;5120736;28;20848;-69
2022/11/06 12:07:05;;;;;;;4.57;3.97;;;16.40;99.90;;;;;;5124281;28;20441;-69
2022/11/06 12:09:41;;;;;;;6.37;5.03;;;16.60;99.90;;;;;;5121580;28;20478;-68
2022/11/06 12:12:21;;;;;;;6.30;4.53;;;16.60;99.90;;;;;;5121994;28;20456;-69
2022/11/06 12:15:16;;;;;;;4.33;3.80;;;16.60;99.90;;;;;;5120954;28;20467;-70
2022/11/06 12:17:47;;;;;;;6.73;4.07;;;16.90;99.90;;;;;;5118971;28;20478;-69
2022/11/06 12:20:20;;;;;;;10.83;3.90;;;17.10;99.90;;;;;;5120252;28;20441;-69
2022/11/06 12:22:50;;;;;;;4.83;4.00;;;17.30;99.90;;;;;;5117849;28;20765;-69
2022/11/06 12:25:21;;;;;;;5.83;3.80;;;17.60;99.90;;;;;;5119460;28;20545;-69
2022/11/06 12:27:53;;;;;;;7.20;3.83;;;17.50;99.90;;;;;;5117522;28;20488;-68
2022/11/06 12:30:21;;;;;;;6.63;3.60;;;17.60;99.90;;;;;;5117741;28;20436;-69
2022/11/06 12:33:00;;;;;;;4.00;3.53;;;18.00;99.90;;;;;;5118856;28;20457;-69
2022/11/06 12:35:30;;;;;;;5.60;3.90;;;18.50;99.90;;;;;;5119335;28;20432;-69
2022/11/06 12:38:06;;;;;;;4.60;3.20;;;18.80;99.90;;;;;;5107628;28;20458;-69
2022/11/06 12:40:38;;;;;;;4.93;3.30;;;19.00;99.90;;;;;;5105164;28;20509;-70
2022/11/06 12:43:15;;;;;;;5.60;3.83;;;18.60;99.90;;;;;;5105586;28;20445;-69
2022/11/06 12:46:00;;;;;;;6.80;3.30;;;18.20;99.90;;;;;;5106205;28;20829;-69
2022/11/06 12:48:46;;;;;;;4.80;3.80;;;17.90;99.90;;;;;;5108622;28;20531;-69
2022/11/06 12:51:21;;;;;;;5.50;3.73;;;17.70;99.90;;;;;;5106920;28;20500;-69
2022/11/06 12:54:02;;;;;;;4.03;3.53;;;17.60;99.90;;;;;;5105401;28;20467;-69
2022/11/06 12:56:40;;;;;;;4.90;3.90;;;17.90;99.90;;;;;;5105455;28;20437;-68
2022/11/06 12:59:26;;;;;;;5.13;3.50;;;17.80;99.90;;;;;;5105942;28;20449;-69
2022/11/06 13:02:07;;;;;;;5.37;3.90;;;18.00;99.90;;;;;;5104644;28;20438;-69
2022/11/06 13:04:48;;;;;;;6.20;3.10;;;18.30;99.90;;;;;;5105424;28;20495;-68
2022/11/06 13:07:38;;;;;;;6.47;3.03;;;18.40;99.90;;;;;;5104179;28;20482;-70
2022/11/06 13:10:47;;;;;;;5.30;3.80;;;18.60;99.90;;;;;;5103849;28;20534;-70
2022/11/06 13:13:36;;;;;;;3.17;2.87;;;18.90;99.90;;;;;;5083670;28;20483;-69
2022/11/06 13:16:17;;;;;;;5.37;3.40;;;19.30;99.90;;;;;;5105101;28;20433;-69
2022/11/06 13:18:48;;;;;;;5.40;3.50;;;19.20;99.90;;;;;;5104526;28;20512;-69
2022/11/06 13:21:21;;;;;;;5.53;2.73;;;19.50;99.90;;;;;;5105297;28;20442;-69